West Hills, California
Current Conditions -  °F | °C
As of 2:51 AM on Tuesday 21 Oct 2014 (Local Time) from KVNY Reporting Station
Clear Clear  
Wind Chill: 16°   Ceiling: Unl
Heat Index: 16°   Visibility: 10mi
Dew Point: 12°   Wind: 0mph
Humidity: 80%   Direction: NA
Pressure: 29.9"   Gusts: NA
Location:  34.2°N, 118.64°W
Report Text: KVNY 210951Z 00000KT 10SM CLR 16/12 A2990 RMK AO2 SLP118 T01560122
Loading
Personal Weather Stations






























Interactive Weather Map
Tropical Storm Tracking
New forecast layout! Learn more

10-Day Weather Forecast

Advertisements
Track Severe Weather on mobile